createdAt,value
2023-01-29T00:04:14.062Z,7.80
2023-01-29T00:09:16.325Z,9.93
2023-01-29T00:14:18.576Z,5.57
2023-01-29T00:19:22.041Z,7.27
2023-01-29T00:24:24.680Z,7.13
2023-01-29T00:29:26.761Z,5.83
2023-01-29T00:34:29.963Z,7.67
2023-01-29T00:39:46.820Z,7.40
2023-01-29T00:44:50.528Z,6.03
2023-01-29T00:49:54.449Z,8.30
2023-01-29T00:54:58.466Z,6.80
2023-01-29T01:00:01.373Z,7.50
2023-01-29T01:05:05.589Z,8.60
2023-01-29T01:16:14.988Z,8.33
2023-01-29T01:21:18.593Z,7.90
2023-01-29T01:26:20.974Z,6.73
2023-01-29T01:31:23.261Z,8.00
2023-01-29T01:36:26.699Z,8.50
2023-01-29T01:41:30.146Z,8.63
2023-01-29T01:46:33.836Z,7.23
2023-01-29T01:51:43.392Z,12.30
2023-01-29T01:56:51.032Z,7.70
2023-01-29T02:01:54.637Z,10.87
2023-01-29T02:07:01.460Z,8.47
2023-01-29T02:12:05.827Z,10.50
2023-01-29T02:17:11.564Z,12.73
2023-01-29T02:22:45.479Z,12.13
2023-01-29T02:28:13.605Z,9.10
2023-01-29T02:33:26.251Z,8.97
2023-01-29T02:38:35.017Z,8.00
2023-01-29T02:43:46.415Z,11.93
2023-01-29T02:48:58.272Z,8.13
2023-01-29T02:54:05.278Z,9.63
2023-01-29T03:05:01.626Z,9.97
2023-01-29T03:10:09.870Z,11.50
2023-01-29T03:15:18.344Z,7.27
2023-01-29T03:20:25.002Z,9.37
2023-01-29T03:25:28.569Z,14.97
2023-01-29T03:30:35.588Z,10.17
2023-01-29T03:35:44.854Z,8.60
2023-01-29T03:40:51.288Z,8.50
2023-01-29T03:46:03.770Z,11.63
2023-01-29T03:51:16.877Z,9.43
2023-01-29T03:56:29.366Z,9.60
2023-01-29T04:01:40.993Z,9.40
2023-01-29T04:06:46.779Z,10.53
2023-01-29T04:11:55.433Z,11.23
2023-01-29T04:17:03.241Z,11.33
2023-01-29T04:22:10.598Z,13.93
2023-01-29T04:27:26.202Z,11.70
2023-01-29T04:32:37.998Z,12.37
2023-01-29T04:37:45.321Z,12.97
2023-01-29T04:42:55.242Z,12.47
2023-01-29T04:48:07.581Z,11.03
2023-01-29T04:53:15.674Z,11.97
2023-01-29T04:58:26.796Z,11.33
2023-01-29T05:03:33.637Z,11.23
2023-01-29T05:08:39.049Z,15.20
2023-01-29T05:13:42.737Z,13.67
2023-01-29T05:18:46.743Z,11.67
2023-01-29T05:24:07.142Z,13.37
2023-01-29T05:29:08.892Z,11.10
2023-01-29T05:34:12.432Z,12.63
2023-01-29T05:39:14.175Z,16.07
2023-01-29T05:44:16.706Z,12.90
2023-01-29T05:49:20.342Z,11.27
2023-01-29T05:54:22.476Z,12.50
2023-01-29T05:59:24.876Z,15.30
2023-01-29T06:04:28.344Z,11.27
2023-01-29T06:09:30.407Z,12.00
2023-01-29T06:14:32.917Z,17.23
2023-01-29T06:19:36.477Z,16.50
2023-01-29T06:24:38.550Z,15.87
2023-01-29T06:29:40.734Z,16.10
2023-01-29T06:34:44.190Z,14.63
2023-01-29T06:39:46.283Z,17.10
2023-01-29T06:44:48.602Z,16.70
2023-01-29T06:49:51.716Z,16.73
2023-01-29T06:54:53.443Z,17.33
2023-01-29T06:59:55.780Z,21.27
2023-01-29T07:04:59.300Z,21.50
2023-01-29T07:10:01.468Z,14.50
2023-01-29T07:15:03.520Z,15.50
2023-01-29T07:20:08.558Z,19.97
2023-01-29T07:25:10.646Z,20.20
2023-01-29T07:30:13.888Z,18.03
2023-01-29T07:35:17.403Z,19.20
2023-01-29T07:40:19.342Z,18.53
2023-01-29T07:45:21.754Z,17.17
2023-01-29T07:50:26.320Z,17.33
2023-01-29T08:00:55.553Z,23.20
2023-01-29T08:05:59.344Z,17.33
2023-01-29T08:11:01.942Z,18.47
2023-01-29T08:16:04.857Z,18.03
2023-01-29T08:21:08.329Z,20.13
2023-01-29T08:26:10.413Z,19.20
2023-01-29T08:31:15.981Z,22.10
2023-01-29T08:36:19.173Z,21.13
2023-01-29T08:41:21.323Z,19.30
2023-01-29T08:46:23.873Z,16.87
2023-01-29T08:51:51.202Z,19.67
2023-01-29T08:56:53.048Z,21.70
2023-01-29T09:01:55.150Z,18.63
2023-01-29T09:06:58.351Z,18.27
2023-01-29T09:12:00.465Z,18.00
2023-01-29T09:17:02.221Z,18.73
2023-01-29T09:22:05.502Z,16.60
2023-01-29T09:27:07.559Z,18.90
2023-01-29T09:32:09.704Z,19.23
2023-01-29T09:37:13.710Z,16.53
2023-01-29T09:42:22.836Z,22.67
2023-01-29T09:47:27.030Z,19.93
2023-01-29T09:52:33.762Z,14.80
2023-01-29T09:57:50.381Z,18.20
2023-01-29T10:03:10.933Z,16.00
2023-01-29T10:08:34.279Z,14.20
2023-01-29T10:13:45.063Z,16.13
2023-01-29T10:19:03.898Z,13.90
2023-01-29T10:24:22.127Z,11.97
2023-01-29T10:29:25.771Z,13.93
2023-01-29T10:34:33.769Z,11.13
2023-01-29T10:39:37.319Z,15.33
2023-01-29T10:44:50.976Z,10.33
2023-01-29T10:50:13.369Z,8.43
2023-01-29T10:55:46.663Z,10.80
2023-01-29T11:00:49.572Z,8.63
2023-01-29T11:05:58.023Z,7.37
2023-01-29T11:11:07.674Z,9.13
2023-01-29T11:16:10.012Z,8.13
2023-01-29T11:21:11.705Z,9.47
2023-01-29T11:26:20.404Z,8.50
2023-01-29T11:31:25.566Z,9.13
2023-01-29T11:36:34.747Z,8.20
2023-01-29T11:41:45.319Z,8.20
2023-01-29T11:46:48.208Z,8.83
2023-01-29T11:51:54.847Z,9.10
2023-01-29T11:56:59.100Z,10.70
2023-01-29T12:02:20.984Z,8.53
2023-01-29T12:07:23.345Z,9.33
2023-01-29T12:12:32.535Z,10.90
2023-01-29T12:17:38.925Z,7.87
2023-01-29T12:22:47.103Z,8.73
2023-01-29T12:27:59.747Z,15.03
2023-01-29T12:33:10.252Z,10.77
2023-01-29T12:38:19.593Z,9.47
2023-01-29T12:43:27.436Z,8.87
2023-01-29T12:48:33.038Z,9.27
2023-01-29T12:53:42.008Z,9.47
2023-01-29T12:58:48.482Z,9.07
2023-01-29T13:04:14.784Z,8.50
2023-01-29T13:09:21.430Z,8.17
2023-01-29T13:14:48.092Z,11.23
2023-01-29T13:19:52.631Z,8.23
2023-01-29T13:25:04.136Z,8.70
2023-01-29T13:30:24.730Z,9.00
2023-01-29T13:35:26.634Z,9.87
2023-01-29T13:40:32.350Z,10.00
2023-01-29T13:51:33.414Z,10.00
2023-01-29T13:56:58.263Z,9.07
2023-01-29T14:02:24.109Z,9.13
2023-01-29T14:07:49.345Z,11.93
2023-01-29T14:12:52.771Z,12.03
2023-01-29T14:18:00.201Z,12.63
2023-01-29T14:28:32.262Z,11.70
2023-01-29T14:33:39.154Z,10.23
2023-01-29T14:38:47.991Z,13.67
2023-01-29T14:43:49.812Z,10.60
2023-01-29T14:48:53.407Z,17.13
2023-01-29T14:54:03.243Z,13.57
2023-01-29T14:59:15.429Z,14.53
2023-01-29T15:04:23.524Z,14.47
2023-01-29T15:09:36.798Z,16.13
2023-01-29T15:14:46.312Z,13.97
2023-01-29T15:19:49.999Z,17.27
2023-01-29T15:25:07.511Z,15.30
2023-01-29T15:30:15.836Z,12.03
2023-01-29T15:35:28.264Z,17.50
2023-01-29T15:40:30.598Z,14.70
2023-01-29T15:45:34.112Z,15.37
2023-01-29T15:50:41.853Z,17.97
2023-01-29T15:55:44.744Z,17.10
2023-01-29T16:00:52.525Z,16.20
2023-01-29T16:05:56.928Z,18.30
2023-01-29T16:11:01.869Z,17.37
2023-01-29T16:16:16.410Z,14.27
2023-01-29T16:21:27.714Z,15.33
2023-01-29T16:26:33.935Z,19.97
2023-01-29T16:31:37.794Z,16.67
2023-01-29T16:42:23.549Z,21.73
2023-01-29T16:47:34.455Z,17.57
2023-01-29T16:52:37.575Z,17.53
2023-01-29T16:57:40.631Z,18.53
2023-01-29T17:02:42.792Z,16.10
2023-01-29T17:07:46.691Z,18.87
2023-01-29T17:12:54.413Z,15.33
2023-01-29T17:17:56.536Z,20.07
2023-01-29T17:23:00.220Z,18.87
2023-01-29T17:28:02.932Z,15.77
2023-01-29T17:33:13.078Z,16.93
2023-01-29T17:38:25.991Z,15.40
2023-01-29T17:43:28.635Z,15.33
2023-01-29T17:48:31.889Z,13.53
2023-01-29T17:53:50.348Z,12.83
2023-01-29T17:58:52.258Z,12.57
2023-01-29T18:03:54.467Z,12.93
2023-01-29T18:08:57.778Z,14.83
2023-01-29T18:14:02.727Z,13.13
2023-01-29T18:19:21.291Z,10.60
2023-01-29T18:24:24.966Z,11.17
2023-01-29T18:29:27.192Z,11.17
2023-01-29T18:34:30.072Z,10.47
2023-01-29T18:39:33.903Z,13.37
2023-01-29T18:44:35.905Z,11.60
2023-01-29T18:49:38.034Z,11.90
2023-01-29T18:54:42.251Z,13.17
2023-01-29T18:59:44.854Z,10.57
2023-01-29T19:04:47.398Z,9.67
2023-01-29T19:09:50.541Z,11.63
2023-01-29T19:14:52.244Z,11.93
2023-01-29T19:19:54.515Z,12.40
2023-01-29T19:24:58.188Z,8.60
2023-01-29T19:30:00.483Z,9.27
2023-01-29T19:35:03.225Z,8.17
2023-01-29T19:40:08.280Z,7.00
2023-01-29T19:45:10.777Z,8.53
2023-01-29T19:50:13.385Z,8.53
2023-01-29T19:55:17.504Z,6.00
2023-01-29T20:00:20.956Z,6.33
2023-01-29T20:05:23.114Z,9.13
2023-01-29T20:10:27.139Z,8.60
2023-01-29T20:15:29.755Z,7.00
2023-01-29T20:20:32.663Z,6.87
2023-01-29T20:25:36.293Z,8.37
2023-01-29T20:30:40.037Z,6.23
2023-01-29T20:35:42.291Z,8.47
2023-01-29T20:40:45.971Z,5.33
2023-01-29T20:45:47.899Z,8.40
2023-01-29T20:50:50.162Z,5.83
2023-01-29T20:55:53.658Z,8.03
2023-01-29T21:00:55.498Z,7.00
2023-01-29T21:05:57.673Z,6.60
2023-01-29T21:11:04.438Z,7.10
2023-01-29T21:16:07.216Z,7.67
2023-01-29T21:21:09.613Z,8.53
2023-01-29T21:26:12.732Z,10.30
2023-01-29T21:31:15.039Z,6.93
2023-01-29T21:36:16.760Z,10.30
2023-01-29T21:41:20.307Z,8.40
2023-01-29T21:46:22.552Z,9.97
2023-01-29T21:51:24.741Z,9.47
2023-01-29T21:56:28.179Z,6.77
2023-01-29T22:01:37.287Z,9.77
2023-01-29T22:06:40.722Z,9.83
2023-01-29T22:11:44.285Z,7.30
2023-01-29T22:16:46.212Z,11.90
2023-01-29T22:21:48.513Z,9.90
2023-01-29T22:26:51.658Z,8.47
2023-01-29T22:31:53.429Z,8.80
2023-01-29T22:36:55.618Z,8.20
2023-01-29T22:41:59.288Z,8.60
2023-01-29T22:47:01.873Z,8.70
2023-01-29T22:52:03.907Z,6.60
2023-01-29T22:57:08.642Z,8.87
2023-01-29T23:02:11.576Z,7.73
2023-01-29T23:07:13.350Z,9.77
2023-01-29T23:12:17.309Z,7.97
2023-01-29T23:17:19.706Z,8.53
2023-01-29T23:22:22.037Z,8.10
2023-01-29T23:27:25.509Z,9.77
2023-01-29T23:32:27.588Z,9.20
2023-01-29T23:37:29.704Z,8.60
2023-01-29T23:42:32.918Z,9.53
2023-01-29T23:47:35.035Z,10.00
2023-01-29T23:52:37.156Z,9.43
2023-01-29T23:57:40.627Z,9.47
